Time;durP1;ratioP1;P1;durP2;ratioP2;P2;SDS_P1;SDS_P2;PMS_P1;PMS_P2;Temp;Humidity;BMP_temperature;BMP_pressure;BME280_temperature;BME280_humidity;BME280_pressure;Samples;Min_cycle;Max_cycle;Signal;HPM_P1;HPM_P2
2022/11/11 00:00:21;;;;;;;5.10;4.40;;;;;;;9.00;53.28;101184.22;10478765;28;20357;-67
2022/11/11 00:05:24;;;;;;;9.93;5.90;;;;;;;8.46;57.76;101181.84;10477716;28;20236;-69
2022/11/11 00:10:28;;;;;;;6.23;4.67;;;;;;;10.34;52.10;101198.41;10478987;28;20241;-68
2022/11/11 00:15:29;;;;;;;5.00;4.50;;;;;;;9.32;52.93;101212.47;10487118;28;20223;-69
2022/11/11 00:25:52;;;;;;;8.97;6.83;;;;;;;9.53;50.36;101215.84;10484833;28;20697;-65
2022/11/11 00:31:14;;;;;;;4.67;4.27;;;;;;;8.60;53.37;101201.13;10482963;28;20234;-68
2022/11/11 00:36:15;;;;;;;5.23;4.73;;;;;;;9.85;50.71;101208.47;10482530;28;20223;-69
2022/11/11 00:41:20;;;;;;;5.83;5.10;;;;;;;9.99;50.54;101236.56;10485932;28;20281;-67
2022/11/11 00:51:42;;;;;;;21.70;8.30;;;;;;;8.15;53.56;101221.03;10485244;28;20227;-67
2022/11/11 00:56:44;;;;;;;47.47;8.67;;;;;;;7.93;54.65;101224.69;10480476;28;20612;-68
2022/11/11 01:01:46;;;;;;;22.33;5.93;;;;;;;9.55;51.71;101200.50;10482687;28;20233;-66
2022/11/11 01:06:48;;;;;;;11.20;5.30;;;;;;;8.01;54.18;101216.88;10481657;28;20285;-65
2022/11/11 01:11:50;;;;;;;14.73;6.50;;;;;;;8.90;53.67;101216.22;10465809;28;20236;-65
2022/11/11 01:16:51;;;;;;;36.77;6.57;;;;;;;8.57;53.95;101226.25;10481713;28;20230;-67
2022/11/11 01:21:53;;;;;;;38.80;7.03;;;;;;;9.51;52.83;101200.91;10480313;28;20680;-67
2022/11/11 01:26:55;;;;;;;48.33;6.67;;;;;;;8.39;54.88;101230.56;10477544;28;20321;-65
2022/11/11 01:31:57;;;;;;;81.80;8.20;;;;;;;9.56;53.80;101209.34;10474700;28;20690;-68
2022/11/11 01:36:58;;;;;;;40.70;7.27;;;;;;;9.18;53.46;101222.59;10481051;28;20701;-67
2022/11/11 01:42:00;;;;;;;62.30;8.43;;;;;;;8.91;54.58;101223.28;10479790;28;20280;-67
2022/11/11 01:47:04;;;;;;;55.27;7.80;;;;;;;10.96;51.85;101145.06;10478439;28;20239;-68
2022/11/11 01:52:13;;;;;;;62.87;7.90;;;;;;;8.09;56.96;101217.06;10482010;28;20212;-66
2022/11/11 01:57:33;;;;;;;66.13;9.70;;;;;;;9.09;55.79;101214.56;10480709;28;20702;-68
2022/11/11 02:02:39;;;;;;;89.07;9.93;;;;;;;9.01;56.16;101208.09;10481934;28;20256;-68
2022/11/11 02:07:41;;;;;;;90.93;9.40;;;;;;;9.20;55.90;101207.25;10479636;28;20295;-67
2022/11/11 02:18:04;;;;;;;69.23;6.67;;;;;;;10.25;52.31;101216.22;10478060;28;20231;-69
2022/11/11 02:23:32;;;;;;;23.77;5.83;;;;;;;10.28;52.94;101223.94;10478870;28;20722;-69
2022/11/11 02:28:35;;;;;;;19.70;6.23;;;;;;;10.83;51.88;101207.06;10464956;28;20235;-68
2022/11/11 02:33:36;;;;;;;45.17;8.50;;;;;;;10.20;53.16;101239.06;10482153;28;20224;-69
2022/11/11 02:38:38;;;;;;;32.83;6.70;;;;;;;10.63;52.26;101237.56;10478282;28;20235;-68
2022/11/11 02:43:40;;;;;;;31.17;6.13;;;;;;;9.99;53.32;101239.25;10479732;28;20300;-68
2022/11/11 02:48:42;;;;;;;37.57;6.73;;;;;;;8.91;56.11;101243.75;10480436;28;20231;-69
2022/11/11 02:53:44;;;;;;;68.67;7.63;;;;;;;9.01;55.33;101233.94;10478379;28;20229;-68
2022/11/11 02:58:46;;;;;;;28.53;6.53;;;;;;;9.13;55.03;101229.31;10479951;28;20229;-67
2022/11/11 03:03:47;;;;;;;19.57;5.70;;;;;;;8.64;55.51;101245.22;10475707;28;20318;-66
2022/11/11 03:08:49;;;;;;;21.07;5.37;;;;;;;7.94;58.14;101205.06;10480215;28;20239;-65
2022/11/11 03:13:51;;;;;;;26.27;5.70;;;;;;;7.86;57.79;101202.22;10478718;28;20227;-68
2022/11/11 03:18:52;;;;;;;25.53;5.63;;;;;;;7.06;59.34;101174.31;10470609;28;20232;-66
2022/11/11 03:23:54;;;;;;;21.87;5.33;;;;;;;6.63;59.91;101181.28;10477467;28;20759;-69
2022/11/11 03:28:56;;;;;;;25.73;5.47;;;;;;;8.08;58.15;101158.53;10478257;28;20312;-67
2022/11/11 03:34:17;;;;;;;31.00;5.30;;;;;;;9.48;54.23;101177.97;10475150;28;20223;-67
2022/11/11 03:39:18;;;;;;;22.80;5.13;;;;;;;8.81;55.03;101220.56;10471479;28;20873;-67
2022/11/11 03:44:20;;;;;;;28.60;5.50;;;;;;;9.45;54.60;101209.50;10477483;28;20277;-66
2022/11/11 03:49:22;;;;;;;34.83;6.27;;;;;;;9.51;53.82;101225.78;10486920;28;20238;-68
2022/11/11 03:54:23;;;;;;;17.77;5.73;;;;;;;9.11;54.47;101261.53;10485555;28;20234;-69
2022/11/11 03:59:25;;;;;;;36.27;6.27;;;;;;;8.44;55.71;101277.16;10485960;28;20264;-67
2022/11/11 04:25:47;;;;;;;19.93;5.53;;;;;;;10.05;52.97;101297.50;10481911;28;20286;-66
2022/11/11 04:30:49;;;;;;;28.23;5.97;;;;;;;9.79;53.31;101324.81;10486481;28;20231;-65
2022/11/11 04:35:50;;;;;;;20.63;5.77;;;;;;;9.41;53.12;101353.22;10484096;28;20762;-66
2022/11/11 04:41:05;;;;;;;14.37;6.23;;;;;;;10.17;52.14;101316.91;10486162;28;20284;-70
2022/11/11 04:46:06;;;;;;;20.73;5.63;;;;;;;10.27;51.86;101309.72;10484124;28;20690;-67
2022/11/11 04:51:08;;;;;;;14.30;6.00;;;;;;;10.23;52.18;101335.06;10484110;28;20550;-66
2022/11/11 04:57:10;;;;;;;14.17;6.20;;;;;;;10.28;52.17;101320.25;10477052;28;20242;-66
2022/11/11 05:12:21;;;;;;;8.00;5.53;;;;;;;10.09;52.60;101341.69;10482542;28;20356;-66
2022/11/11 05:22:43;;;;;;;21.10;5.93;;;;;;;10.61;51.60;101350.16;10480283;28;20259;-68
2022/11/11 05:27:45;;;;;;;8.27;5.27;;;;;;;10.93;50.80;101353.44;10480337;28;20237;-67
2022/11/11 05:32:47;;;;;;;25.03;5.93;;;;;;;10.39;51.37;101402.19;10481224;28;20235;-67
2022/11/11 05:43:09;;;;;;;13.67;6.40;;;;;;;10.01;52.37;101409.28;10480164;28;20462;-68
2022/11/11 05:48:11;;;;;;;18.50;6.07;;;;;;;8.31;56.71;101391.25;10480034;28;20235;-68
2022/11/11 05:53:12;;;;;;;20.43;5.90;;;;;;;9.18;55.52;101385.50;10484898;28;20227;-66
2022/11/11 05:58:19;;;;;;;16.83;6.60;;;;;;;7.79;57.20;101391.09;10460607;28;20243;-67
2022/11/11 06:03:20;;;;;;;19.47;7.03;;;;;;;8.24;56.53;101390.06;10479519;28;20238;-67
2022/11/11 06:08:22;;;;;;;15.20;6.80;;;;;;;8.73;56.92;101353.00;10463995;28;20223;-67
2022/11/11 06:13:24;;;;;;;17.80;7.67;;;;;;;8.57;56.59;101361.47;10480366;28;20238;-67
2022/11/11 06:18:26;;;;;;;24.73;8.80;;;;;;;8.10;56.71;101377.91;10483286;28;20262;-68
2022/11/11 06:23:31;;;;;;;31.47;8.23;;;;;;;7.54;57.87;101385.13;10478359;28;20234;-67
2022/11/11 06:28:34;;;;;;;60.27;10.00;;;;;;;7.48;59.02;101368.78;10478581;28;20230;-69
2022/11/11 06:33:36;;;;;;;28.90;7.53;;;;;;;9.19;55.10;101364.97;10482699;28;20778;-67
2022/11/11 06:38:41;;;;;;;47.90;8.93;;;;;;;8.68;55.53;101382.75;10466854;28;20303;-67
2022/11/11 06:43:43;;;;;;;67.30;9.20;;;;;;;8.91;53.58;101414.63;10482236;28;20231;-69
2022/11/11 06:48:45;;;;;;;30.20;7.67;;;;;;;9.76;52.51;101389.25;10479240;28;20348;-67
2022/11/11 06:53:46;;;;;;;44.70;7.77;;;;;;;9.60;52.79;101413.84;10480766;28;20704;-68
2022/11/11 06:58:48;;;;;;;45.50;7.60;;;;;;;8.95;54.32;101410.72;10479417;28;20234;-67
2022/11/11 07:03:50;;;;;;;57.53;7.57;;;;;;;10.07;51.95;101389.16;10478866;28;20242;-67
2022/11/11 07:08:51;;;;;;;51.43;7.73;;;;;;;9.55;52.87;101434.81;10480313;28;20242;-69
2022/11/11 07:13:53;;;;;;;46.93;9.83;;;;;;;9.57;52.10;101456.91;10477742;28;20281;-68
2022/11/11 07:18:54;;;;;;;41.37;8.30;;;;;;;10.06;51.37;101432.94;10482225;28;20246;-68
2022/11/11 07:23:56;;;;;;;61.20;8.70;;;;;;;9.31;52.98;101467.22;10486875;28;20235;-68
2022/11/11 07:28:58;;;;;;;60.10;9.87;;;;;;;9.91;51.66;101454.75;10488478;28;20239;-68
2022/11/11 07:33:59;;;;;;;47.10;8.90;;;;;;;10.12;51.79;101459.97;10487047;28;20231;-69
2022/11/11 07:39:01;;;;;;;29.93;8.03;;;;;;;8.39;53.78;101450.13;10484944;28;20288;-67
2022/11/11 07:44:09;;;;;;;23.83;6.60;;;;;;;7.68;56.47;101449.75;10488379;28;20939;-68
2022/11/11 07:49:10;;;;;;;30.20;7.37;;;;;;;8.97;55.81;101433.63;10486155;28;20237;-68
2022/11/11 07:54:12;;;;;;;27.13;6.60;;;;;;;8.50;54.91;101488.38;10486173;28;20219;-68
2022/11/11 07:59:13;;;;;;;22.77;7.10;;;;;;;10.95;51.16;101418.41;10486539;28;20227;-69
2022/11/11 08:04:15;;;;;;;29.20;7.50;;;;;;;10.96;50.66;101437.03;10485392;28;20711;-67
2022/11/11 08:09:17;;;;;;;16.63;8.13;;;;;;;9.47;53.05;101504.16;10478497;28;20727;-68
2022/11/11 08:14:22;;;;;;;17.83;7.30;;;;;;;10.42;51.11;101479.53;10485202;28;20230;-69
2022/11/11 08:19:23;;;;;;;16.00;5.87;;;;;;;10.08;53.21;101469.25;10487605;28;20289;-68
2022/11/11 08:24:25;;;;;;;16.43;6.50;;;;;;;10.35;51.09;101481.09;10480778;28;20262;-68
2022/11/11 08:29:46;;;;;;;23.77;6.43;;;;;;;10.85;50.65;101455.97;10470084;28;20254;-68
2022/11/11 08:34:48;;;;;;;28.40;7.73;;;;;;;10.02;51.94;101503.72;10481464;28;20226;-68
2022/11/11 08:39:51;;;;;;;25.37;6.27;;;;;;;10.73;51.34;101467.78;10480465;28;20293;-68
2022/11/11 08:44:53;;;;;;;38.80;6.03;;;;;;;10.85;50.36;101482.75;10480482;28;20242;-68
2022/11/11 08:49:54;;;;;;;57.13;7.00;;;;;;;8.94;54.80;101491.78;10483893;28;20231;-68
2022/11/11 08:54:56;;;;;;;27.30;5.90;;;;;;;8.43;56.06;101478.22;10484764;28;20234;-68
2022/11/11 08:59:57;;;;;;;31.43;6.17;;;;;;;8.77;54.77;101499.38;10481424;28;20243;-68
2022/11/11 09:04:59;;;;;;;21.07;6.33;;;;;;;10.26;52.17;101469.41;10485079;28;20231;-68
2022/11/11 09:10:01;;;;;;;40.93;7.17;;;;;;;9.95;52.55;101474.84;10481606;28;20263;-71
2022/11/11 09:15:03;;;;;;;46.03;7.30;;;;;;;9.23;53.09;101497.31;10483920;28;20229;-72
2022/11/11 09:20:05;;;;;;;22.20;6.77;;;;;;;10.28;51.94;101467.44;10480452;28;20231;-71
2022/11/11 09:25:07;;;;;;;44.03;8.97;;;;;;;9.62;53.33;101493.91;10478131;28;20987;-70
2022/11/11 09:30:10;;;;;;;57.87;8.13;;;;;;;7.34;58.72;101439.13;10480148;28;20235;-70
2022/11/11 09:35:11;;;;;;;18.77;7.70;;;;;;;10.55;52.56;101431.06;10482616;28;20238;-71
2022/11/11 09:40:20;;;;;;;14.30;7.03;;;;;;;10.64;52.24;101456.94;10481068;28;20263;-71
2022/11/11 09:45:54;;;;;;;24.50;8.50;;;;;;;8.80;56.19;101476.94;10482848;28;20253;-72
2022/11/11 09:50:58;;;;;;;17.93;9.50;;;;;;;10.46;52.63;101447.97;10483011;28;20227;-71
2022/11/11 09:56:11;;;;;;;26.03;9.17;;;;;;;10.54;52.32;101445.41;10482969;28;20691;-71
2022/11/11 10:01:41;;;;;;;43.93;8.73;;;;;;;9.59;54.03;101498.53;10477707;28;20245;-71
2022/11/11 10:06:46;;;;;;;21.83;7.27;;;;;;;9.59;54.16;101487.84;10482926;28;20235;-71
2022/11/11 10:12:15;;;;;;;40.07;8.17;;;;;;;10.91;52.55;101423.22;10477155;28;20227;-74
2022/11/11 10:17:51;;;;;;;16.47;7.40;;;;;;;11.19;51.55;101429.47;10479042;28;20239;-72
2022/11/11 10:23:03;;;;;;;22.27;7.77;;;;;;;10.48;52.04;101486.16;10475912;28;20603;-72
2022/11/11 10:28:07;;;;;;;22.87;6.37;;;;;;;10.25;52.48;101496.28;10480169;28;20309;-71
2022/11/11 10:33:18;;;;;;;19.60;7.33;;;;;;;10.47;52.54;101501.34;10480127;28;20290;-71
2022/11/11 10:38:32;;;;;;;15.13;6.50;;;;;;;11.70;50.94;101462.06;10475172;28;20223;-72
2022/11/11 10:43:33;;;;;;;20.70;8.20;;;;;;;10.22;52.84;101499.25;10480249;28;20227;-72
2022/11/11 10:48:53;;;;;;;18.23;7.93;;;;;;;10.35;54.04;101490.94;10482040;28;20502;-71
2022/11/11 10:54:14;;;;;;;26.80;7.70;;;;;;;10.02;54.43;101482.34;10474995;28;20324;-72
2022/11/11 10:59:54;;;;;;;16.17;7.27;;;;;;;9.56;55.46;101488.13;10476044;28;20292;-71
2022/11/11 11:06:29;;;;;;;17.63;7.97;;;;;;;5.63;64.80;101399.81;10519867;27;20308;-73
2022/11/11 11:11:40;;;;;;;11.00;6.80;;;;;;;6.83;62.89;101413.84;10476654;28;20234;-70
2022/11/11 11:16:49;;;;;;;11.30;7.77;;;;;;;6.87;63.27;101396.69;10470607;28;20257;-70
2022/11/11 11:21:53;;;;;;;16.93;7.93;;;;;;;6.78;62.11;101398.28;10480031;28;20316;-74
2022/11/11 11:27:00;;;;;;;23.70;8.00;;;;;;;8.85;58.00;101376.78;10472176;28;20250;-72
2022/11/11 11:32:20;;;;;;;14.47;8.43;;;;;;;9.38;56.97;101390.88;10478524;28;20208;-71
2022/11/11 11:37:24;;;;;;;13.50;7.40;;;;;;;8.73;58.17;101398.38;10480558;28;20299;-70
2022/11/11 11:42:34;;;;;;;9.30;8.23;;;;;;;8.37;58.61;101398.72;10474396;28;20318;-74
2022/11/11 11:47:49;;;;;;;12.67;8.73;;;;;;;9.05;57.50;101384.06;10440595;28;20235;-73
2022/11/11 11:53:38;;;;;;;17.50;8.67;;;;;;;9.12;57.71;101374.53;9509663;28;10000807;-72
2022/11/11 11:58:48;;;;;;;16.67;11.67;;;;;;;8.81;57.48;101395.88;10460233;28;20288;-72
2022/11/11 12:04:29;;;;;;;17.50;11.53;;;;;;;9.85;55.65;101417.84;10441762;28;20236;-72
2022/11/11 12:09:47;;;;;;;26.77;10.90;;;;;;;7.82;59.84;101435.31;10435485;28;20244;-72
2022/11/11 12:15:09;;;;;;;15.20;10.33;;;;;;;10.10;56.04;101389.69;10423465;28;20241;-72
2022/11/11 12:20:20;;;;;;;20.63;11.70;;;;;;;10.62;55.00;101393.84;10404820;28;20243;-70
2022/11/11 12:25:36;;;;;;;19.43;10.60;;;;;;;10.03;55.72;101423.34;10414379;28;20654;-71
2022/11/11 12:30:46;;;;;;;19.27;11.43;;;;;;;10.65;53.69;101418.50;10444286;28;20227;-74
2022/11/11 12:35:48;;;;;;;18.93;13.17;;;;;;;10.37;54.93;101441.63;10451674;28;20291;-70
2022/11/11 12:41:24;;;;;;;17.60;12.23;;;;;;;10.22;55.66;101433.19;10442926;28;20240;-70
2022/11/11 12:46:25;;;;;;;21.80;16.63;;;;;;;9.10;58.09;101441.44;10421666;28;20263;-74
2022/11/11 12:51:27;;;;;;;23.83;13.07;;;;;;;7.89;61.84;101433.84;9574080;28;10000263;-72
2022/11/11 12:56:37;;;;;;;16.30;12.83;;;;;;;9.44;58.58;101406.38;10445981;28;20235;-71
2022/11/11 13:02:01;;;;;;;17.93;12.43;;;;;;;8.53;59.76;101418.75;10435115;28;20231;-70
2022/11/11 13:07:38;;;;;;;18.93;12.87;;;;;;;10.56;55.80;101392.56;10435923;28;20236;-72
2022/11/11 13:13:02;;;;;;;23.87;17.80;;;;;;;10.13;56.03;101418.84;10457026;28;20224;-71
2022/11/11 13:18:13;;;;;;;16.37;14.23;;;;;;;10.46;54.95;101418.53;10439169;28;20243;-73
2022/11/11 13:23:14;;;;;;;20.03;14.40;;;;;;;9.02;58.01;101449.25;10437436;28;20290;-71
2022/11/11 13:28:36;;;;;;;17.40;13.23;;;;;;;8.93;57.76;101450.91;10420451;28;20285;-74
2022/11/11 13:33:46;;;;;;;21.03;13.57;;;;;;;10.36;55.32;101429.25;9577655;28;10000828;-71
2022/11/11 13:39:01;;;;;;;20.11;14.37;;;;;;;8.76;57.71;101465.69;9898970;28;10001484;-73
2022/11/11 13:44:07;;;;;;;16.57;13.10;;;;;;;9.98;57.19;101430.13;10437905;28;20291;-68
2022/11/11 13:49:38;;;;;;;20.33;14.70;;;;;;;11.34;53.99;101419.09;10433805;28;20244;-69
2022/11/11 13:54:47;;;;;;;21.07;15.80;;;;;;;11.68;53.38;101431.88;10447991;28;20239;-72
2022/11/11 14:00:01;;;;;;;22.37;16.50;;;;;;;11.01;53.81;101458.84;10429825;28;20281;-72
2022/11/11 14:05:05;;;;;;;18.70;15.33;;;;;;;10.81;54.32;101484.84;10434595;28;20224;-70
2022/11/11 14:10:07;;;;;;;22.83;16.67;;;;;;;11.39;53.10;101469.56;10436311;28;20287;-71
2022/11/11 14:15:33;;;;;;;26.07;16.30;;;;;;;10.02;56.04;101493.03;10442089;28;20685;-71
2022/11/11 14:20:36;;;;;;;24.40;16.17;;;;;;;9.51;56.55;101482.34;10435569;28;20267;-70
2022/11/11 14:25:38;;;;;;;21.20;13.73;;;;;;;8.76;58.66;101487.03;10435524;28;20314;-68
2022/11/11 14:30:40;;;;;;;31.47;15.40;;;;;;;9.46;57.32;101483.72;10433175;28;20363;-72
2022/11/11 14:36:10;;;;;;;31.97;16.17;;;;;;;9.85;57.57;101457.97;10433142;28;20238;-70
2022/11/11 14:41:39;;;;;;;20.90;15.73;;;;;;;10.98;54.00;101461.81;10429915;28;20239;-73
2022/11/11 14:47:07;;;;;;;31.87;16.40;;;;;;;11.11;53.99;101474.91;10434875;28;20236;-72
2022/11/11 14:52:18;;;;;;;68.20;19.33;;;;;;;9.96;55.78;101503.31;10428989;28;20239;-69
2022/11/11 14:57:28;;;;;;;26.73;16.93;;;;;;;11.03;54.01;101467.56;10430372;28;20235;-71
2022/11/11 15:02:35;;;;;;;34.53;15.07;;;;;;;10.32;56.20;101460.78;10428376;28;20349;-70
2022/11/11 15:07:56;;;;;;;26.27;15.60;;;;;;;10.72;54.82;101450.88;10436471;28;20289;-68
2022/11/11 15:13:00;;;;;;;28.07;17.57;;;;;;;10.83;55.08;101442.72;10424592;28;20231;-69
2022/11/11 15:18:02;;;;;;;34.63;16.87;;;;;;;10.25;55.48;101464.19;10434475;28;20238;-67
2022/11/11 15:23:41;;;;;;;121.23;17.77;;;;;;;8.93;58.84;101482.94;10430230;28;20285;-66
2022/11/11 15:29:16;;;;;;;62.67;18.00;;;;;;;10.26;56.30;101465.84;10432361;28;20378;-67
2022/11/11 15:34:33;;;;;;;29.63;16.00;;;;;;;10.72;54.47;101453.56;10432255;28;20216;-67
2022/11/11 15:39:46;;;;;;;65.87;16.90;;;;;;;9.00;58.68;101461.91;10442600;28;20704;-67
2022/11/11 15:44:49;;;;;;;34.83;16.70;;;;;;;11.57;53.51;101435.56;10458027;28;20232;-66
2022/11/11 15:49:51;;;;;;;34.50;16.77;;;;;;;11.34;53.61;101450.38;10444381;28;20235;-66
2022/11/11 15:54:54;;;;;;;56.43;23.87;;;;;;;10.40;54.89;101478.00;10442610;28;20227;-66
2022/11/11 15:59:58;;;;;;;47.47;20.00;;;;;;;11.73;52.64;101459.09;10459330;28;20297;-66
2022/11/11 16:05:03;;;;;;;41.77;17.77;;;;;;;11.15;53.35;101478.13;10455902;28;20247;-67
2022/11/11 16:10:09;;;;;;;41.03;14.87;;;;;;;11.11;53.40;101482.09;10447936;28;20231;-67
2022/11/11 16:15:39;;;;;;;81.13;17.57;;;;;;;9.72;56.47;101492.97;10450208;28;20224;-67
2022/11/11 16:21:06;;;;;;;215.80;23.03;;;;;;;9.57;58.18;101476.47;10439567;28;20692;-66
2022/11/11 16:26:08;;;;;;;35.53;17.23;;;;;;;11.07;54.52;101444.88;10434651;28;20233;-67
2022/11/11 16:31:19;;;;;;;119.90;18.90;;;;;;;10.73;54.76;101473.13;10440120;28;20235;-68
2022/11/11 16:36:21;;;;;;;69.87;27.60;;;;;;;10.75;54.99;101471.19;10450871;28;20261;-68
2022/11/11 16:41:40;;;;;;;75.47;19.03;;;;;;;10.23;55.20;101493.75;10451724;28;20676;-68
2022/11/11 16:46:42;;;;;;;56.17;16.17;;;;;;;10.92;54.02;101473.13;10452311;28;20250;-72
2022/11/11 16:51:45;;;;;;;60.07;17.73;;;;;;;11.26;53.26;101478.78;10449739;28;20649;-69
2022/11/11 16:56:52;;;;;;;82.77;16.67;;;;;;;11.09;54.16;101478.72;10450402;28;20247;-69
2022/11/11 17:01:53;;;;;;;73.77;16.43;;;;;;;11.52;52.33;101482.59;10453179;28;20273;-68
2022/11/11 17:07:01;;;;;;;83.20;15.87;;;;;;;11.07;53.46;101485.06;10442594;28;20236;-70
2022/11/11 17:12:03;;;;;;;124.13;16.87;;;;;;;9.39;56.52;101480.75;10442515;28;20232;-67
2022/11/11 17:17:07;;;;;;;116.67;16.30;;;;;;;9.99;56.42;101456.72;10436286;28;20246;-67
2022/11/11 17:22:11;;;;;;;109.17;19.03;;;;;;;8.21;58.93;101433.84;10434751;28;20258;-68
2022/11/11 17:27:12;;;;;;;57.77;17.60;;;;;;;10.27;55.29;101424.75;10434526;28;20285;-67
2022/11/11 17:32:14;;;;;;;104.53;16.83;;;;;;;9.47;56.79;101454.22;10428542;28;20228;-66
2022/11/11 17:37:15;;;;;;;65.57;15.77;;;;;;;9.56;57.59;101453.38;10427184;28;20227;-67
2022/11/11 17:42:17;;;;;;;56.60;15.13;;;;;;;10.68;54.59;101436.94;10428840;28;20236;-70
2022/11/11 17:47:19;;;;;;;65.80;16.07;;;;;;;11.15;53.09;101445.97;10427752;28;20243;-67
2022/11/11 17:52:21;;;;;;;98.73;19.00;;;;;;;8.92;56.78;101475.91;10437122;28;20239;-68
2022/11/11 17:57:22;;;;;;;43.40;16.13;;;;;;;11.63;52.66;101461.84;10431696;28;20262;-69
2022/11/11 18:02:24;;;;;;;75.37;15.67;;;;;;;10.42;54.48;101484.88;10436284;28;20232;-67
2022/11/11 18:07:25;;;;;;;137.23;16.97;;;;;;;8.60;57.38;101497.31;10430967;28;20239;-69
2022/11/11 18:12:28;;;;;;;61.00;15.30;;;;;;;11.35;52.54;101452.91;10435446;28;20257;-68
2022/11/11 18:17:30;;;;;;;81.93;16.27;;;;;;;8.53;58.07;101480.13;10432146;28;20235;-68
2022/11/11 18:22:32;;;;;;;78.63;15.67;;;;;;;9.10;57.11;101486.81;10436302;28;20240;-70
2022/11/11 18:27:33;;;;;;;60.77;16.20;;;;;;;9.08;57.00;101463.88;10440000;28;20285;-69
2022/11/11 18:32:35;;;;;;;99.10;17.03;;;;;;;8.41;58.61;101461.50;10442634;28;20220;-68
2022/11/11 18:37:37;;;;;;;60.13;15.77;;;;;;;9.01;56.32;101463.56;10445436;28;20235;-66
2022/11/11 18:42:45;;;;;;;117.90;17.60;;;;;;;9.01;56.36;101459.09;10435683;28;20259;-67
2022/11/11 18:47:47;;;;;;;50.77;16.27;;;;;;;11.03;52.79;101431.91;10436697;28;20232;-69
2022/11/11 18:52:51;;;;;;;117.53;15.73;;;;;;;9.90;54.94;101474.44;10430728;28;20325;-67
2022/11/11 18:57:53;;;;;;;56.83;16.07;;;;;;;10.65;52.88;101458.66;10428655;28;20239;-67
2022/11/11 19:02:54;;;;;;;39.17;14.37;;;;;;;10.05;53.48;101493.59;10430495;28;20235;-69
2022/11/11 19:07:56;;;;;;;38.00;13.70;;;;;;;10.76;53.31;101467.53;10429653;28;20228;-67
2022/11/11 19:12:57;;;;;;;45.00;18.57;;;;;;;10.83;52.73;101477.53;10429698;28;20293;-66
2022/11/11 19:17:59;;;;;;;35.77;14.43;;;;;;;10.57;53.58;101490.63;10426601;28;20239;-67
2022/11/11 19:23:01;;;;;;;52.97;14.70;;;;;;;10.66;52.21;101510.34;10434380;28;20966;-67
2022/11/11 19:28:03;;;;;;;61.70;14.60;;;;;;;9.77;53.99;101514.78;10440864;28;20265;-67
2022/11/11 19:33:05;;;;;;;50.20;13.93;;;;;;;10.73;53.35;101500.78;10439891;28;20628;-69
2022/11/11 19:38:07;;;;;;;44.17;13.90;;;;;;;11.83;51.14;101515.38;10441896;28;20712;-70
2022/11/11 19:43:09;;;;;;;93.40;16.87;;;;;;;8.86;55.02;101505.78;10445543;28;20293;-69
2022/11/11 19:48:11;;;;;;;53.07;15.87;;;;;;;10.05;54.44;101514.16;10439440;28;20700;-71
2022/11/11 19:53:13;;;;;;;93.30;16.47;;;;;;;8.25;57.88;101503.75;10442383;28;20293;-69
2022/11/11 19:58:14;;;;;;;108.63;16.77;;;;;;;8.80;56.77;101515.13;10438735;28;20243;-67
2022/11/11 20:03:16;;;;;;;94.73;15.53;;;;;;;8.36;56.36;101503.72;10438604;28;20223;-69
2022/11/11 20:08:18;;;;;;;76.13;15.10;;;;;;;10.20;54.33;101480.66;10434690;28;20231;-68
2022/11/11 20:13:19;;;;;;;73.63;14.97;;;;;;;9.30;54.75;101511.81;10431367;28;20208;-69
2022/11/11 20:18:21;;;;;;;31.93;13.70;;;;;;;10.28;53.63;101488.84;10438354;28;20236;-68
2022/11/11 20:23:23;;;;;;;41.47;14.27;;;;;;;9.70;54.56;101515.44;10438184;28;20974;-69
2022/11/11 20:28:25;;;;;;;36.77;15.03;;;;;;;10.07;53.64;101514.84;10438336;28;20236;-70
2022/11/11 20:33:26;;;;;;;25.43;14.70;;;;;;;11.04;52.25;101509.47;10436774;28;20236;-71
2022/11/11 20:38:29;;;;;;;102.00;15.20;;;;;;;9.15;55.30;101545.19;10437166;28;20240;-70
2022/11/11 20:43:34;;;;;;;104.60;14.63;;;;;;;10.04;53.67;101525.81;10440206;28;20727;-66
2022/11/11 20:48:38;;;;;;;55.87;14.77;;;;;;;10.67;52.25;101512.06;10439105;28;20244;-69
2022/11/11 20:53:42;;;;;;;75.93;14.37;;;;;;;10.53;52.58;101524.03;10404423;28;20673;-65
2022/11/11 20:58:47;;;;;;;29.20;10.57;;;;;;;10.59;52.31;101536.84;9550176;28;10000908;-67
2022/11/11 21:03:53;;;;;;;95.27;14.20;;;;;;;9.76;54.09;101560.38;10438424;28;20244;-67
2022/11/11 21:08:55;;;;;;;83.07;12.77;;;;;;;10.68;52.90;101536.00;10459322;28;20244;-68
2022/11/11 21:13:59;;;;;;;85.97;13.00;;;;;;;9.87;54.70;101525.53;10452707;28;20640;-69
2022/11/11 21:19:01;;;;;;;36.63;10.93;;;;;;;10.40;54.20;101518.97;10445258;28;20861;-68
2022/11/11 21:24:06;;;;;;;230.93;18.00;;;;;;;10.26;53.84;101525.59;10441782;28;20316;-69
2022/11/11 21:29:08;;;;;;;167.97;15.70;;;;;;;9.55;55.46;101526.53;10454985;28;20228;-68
2022/11/11 21:34:11;;;;;;;114.50;14.93;;;;;;;10.00;54.50;101509.22;10455846;28;20212;-70
2022/11/11 21:39:13;;;;;;;99.50;13.43;;;;;;;10.38;53.89;101493.31;10458036;28;20232;-67
2022/11/11 21:44:14;;;;;;;81.60;13.03;;;;;;;10.90;52.50;101493.88;10448290;28;20227;-70
2022/11/11 21:49:16;;;;;;;92.47;14.30;;;;;;;10.89;52.29;101513.59;10452380;28;20239;-69
2022/11/11 21:54:18;;;;;;;200.50;16.73;;;;;;;9.76;53.82;101522.94;10450001;28;20250;-72
2022/11/11 21:59:20;;;;;;;112.07;13.13;;;;;;;9.84;54.34;101515.13;10436925;28;20228;-68
2022/11/11 22:04:21;;;;;;;230.93;16.87;;;;;;;8.85;56.60;101523.59;10434804;28;20696;-69
2022/11/11 22:09:23;;;;;;;263.57;19.30;;;;;;;8.10;57.79;101493.41;10444909;28;20243;-67
2022/11/11 22:14:25;;;;;;;93.40;13.10;;;;;;;8.61;57.48;101491.84;10448894;28;20248;-67
2022/11/11 22:19:26;;;;;;;125.07;13.10;;;;;;;7.67;58.19;101477.38;10448083;28;20247;-66
2022/11/11 22:24:28;;;;;;;117.17;12.80;;;;;;;8.37;57.64;101478.75;10446803;28;20765;-70
2022/11/11 22:29:30;;;;;;;113.67;12.50;;;;;;;7.38;59.40;101467.22;10446860;28;20243;-68
2022/11/11 22:34:31;;;;;;;114.40;12.73;;;;;;;6.91;59.91;101442.53;10446783;28;20240;-68
2022/11/11 22:39:33;;;;;;;146.43;13.33;;;;;;;8.52;57.31;101446.41;10416837;28;20698;-68
2022/11/11 22:44:35;;;;;;;151.27;12.43;;;;;;;8.04;57.87;101456.56;9570982;28;10000946;-69
2022/11/11 22:49:36;;;;;;;102.93;11.07;;;;;;;8.24;57.67;101457.59;10446676;28;20247;-68
2022/11/11 22:54:38;;;;;;;91.47;10.10;;;;;;;7.82;57.73;101462.78;10442759;28;20243;-68
2022/11/11 22:59:40;;;;;;;97.17;10.43;;;;;;;7.18;58.82;101455.50;10432912;28;20245;-68
2022/11/11 23:04:41;;;;;;;99.13;10.43;;;;;;;8.53;55.92;101443.63;10437123;28;20746;-68
2022/11/11 23:09:43;;;;;;;54.33;9.30;;;;;;;8.24;56.82;101464.75;10428688;28;20285;-68
2022/11/11 23:14:45;;;;;;;58.07;8.43;;;;;;;7.18;59.43;101456.34;10429885;28;20643;-68
2022/11/11 23:19:46;;;;;;;109.57;9.83;;;;;;;7.91;56.63;101466.56;10428214;28;20314;-69
2022/11/11 23:24:48;;;;;;;39.83;7.30;;;;;;;9.25;55.01;101435.69;10436926;28;20239;-68
2022/11/11 23:29:49;;;;;;;28.33;5.87;;;;;;;9.20;54.33;101455.66;10429459;28;20247;-67
2022/11/11 23:34:53;;;;;;;21.90;5.73;;;;;;;9.93;53.44;101454.59;10429612;28;20231;-68
2022/11/11 23:39:54;;;;;;;68.90;7.23;;;;;;;8.63;54.76;101484.53;10433981;28;20247;-68
2022/11/11 23:44:56;;;;;;;84.60;7.67;;;;;;;7.28;57.87;101484.91;10433146;28;20239;-68
2022/11/11 23:49:58;;;;;;;25.23;5.60;;;;;;;10.19;52.51;101464.75;10431586;28;20246;-67
2022/11/11 23:54:59;;;;;;;35.07;5.77;;;;;;;8.91;54.03;101508.94;10428339;28;20247;-67
